Estación de Curicó
Ultimos registro cada 15 minutos 47
| N° | Estación | Fecha / Hora | Temperatura | Humedad | Lluvia | Velocidad | Dirección | Radiación | Presion |
| 47 | Curicó | 02-05-2026 11:30 | 11,1 | 78 | 0 | 1,3 | 145 | 510,6 | 991,4 |
| 46 | Curicó | 02-05-2026 11:15 | 10,9 | 79 | 0 | 1 | 173 | 498,1 | 991,5 |
| 45 | Curicó | 02-05-2026 11:00 | 10,6 | 79,7 | 0 | 1 | 152 | 479,4 | 991,7 |
| 44 | Curicó | 02-05-2026 10:45 | 10,2 | 80,5 | 0 | 1,3 | 167 | 458,1 | 991,9 |
| 43 | Curicó | 02-05-2026 10:30 | 10 | 81 | 0 | 1 | 199 | 431,9 | 992 |
| 42 | Curicó | 02-05-2026 10:15 | 9,8 | 83 | 0 | 1 | 195 | 405,6 | 992,3 |
| 41 | Curicó | 02-05-2026 10:00 | 9,2 | 84,8 | 0 | 1,3 | 202 | 375,6 | 992,4 |
| 40 | Curicó | 02-05-2026 09:45 | 8,7 | 87,9 | 0 | 1,3 | 202 | 343,1 | 992,8 |
| 39 | Curicó | 02-05-2026 09:30 | 8,6 | 92,4 | 0 | 1 | 170 | 310,6 | 993,2 |
| 38 | Curicó | 02-05-2026 09:15 | 7,5 | 94,2 | 0 | 1 | 166 | 273,1 | 993,2 |
| 37 | Curicó | 02-05-2026 09:00 | 7,5 | 95,2 | 0 | 0,7 | 166 | 245,6 | 993,2 |
| 36 | Curicó | 02-05-2026 08:45 | 6,9 | 96 | 0 | 0,7 | 185 | 211,9 | 993,3 |
| 35 | Curicó | 02-05-2026 08:30 | 6,3 | 97 | 0 | 0,7 | 192 | 153,1 | 993,4 |
| 34 | Curicó | 02-05-2026 08:15 | 5,8 | 97,3 | 0 | 0,7 | 190 | 98,1 | 993,3 |
| 33 | Curicó | 02-05-2026 08:00 | 5,2 | 97,5 | 0 | 0,7 | 184 | 40,6 | 993,4 |
| 32 | Curicó | 02-05-2026 07:45 | 5,1 | 97,4 | 0 | 0,7 | 174 | 18,1 | 993,3 |
| 31 | Curicó | 02-05-2026 07:30 | 5,1 | 97,4 | 0 | 0,7 | 188 | 3,1 | 993,3 |
| 30 | Curicó | 02-05-2026 07:15 | 5,1 | 97,2 | 0 | 0,3 | 184 | 0,6 | 993,1 |
| 29 | Curicó | 02-05-2026 07:00 | 5,1 | 97,1 | 0 | 0,3 | 164 | 0,6 | 993 |
| 28 | Curicó | 02-05-2026 06:45 | 4,9 | 97 | 0 | 0 | 161 | 0,6 | 993,2 |
| 27 | Curicó | 02-05-2026 06:30 | 4,4 | 96,7 | 0 | 0 | 160 | 0,6 | 993,2 |
| 26 | Curicó | 02-05-2026 06:15 | 4,8 | 96,7 | 0 | 0 | 174 | 0,6 | 993,2 |
| 25 | Curicó | 02-05-2026 06:00 | 5 | 96,6 | 0 | 0 | 177 | 0,6 | 993,1 |
| 24 | Curicó | 02-05-2026 05:45 | 5,3 | 96,6 | 0 | 0,3 | 173 | 0,6 | 993,3 |
| 23 | Curicó | 02-05-2026 05:30 | 5,5 | 96,4 | 0 | 0,3 | 194 | 0,6 | 993,4 |
| 22 | Curicó | 02-05-2026 05:15 | 5,7 | 96,6 | 0 | 0,3 | 197 | 0,6 | 993,4 |
| 21 | Curicó | 02-05-2026 05:00 | 5,9 | 96,5 | 0 | 0,3 | 178 | 0,6 | 993,6 |
| 20 | Curicó | 02-05-2026 04:45 | 6 | 96,7 | 0 | 0,3 | 163 | 0,6 | 993,6 |
| 19 | Curicó | 02-05-2026 04:30 | 6 | 96,8 | 0 | 0,7 | 174 | 0,6 | 993,7 |
| 18 | Curicó | 02-05-2026 04:15 | 6,3 | 96,8 | 0 | 0,7 | 170 | 0,6 | 993,9 |
| 17 | Curicó | 02-05-2026 04:00 | 6,5 | 97,1 | 0 | 0,7 | 180 | 0,6 | 994 |
| 16 | Curicó | 02-05-2026 03:45 | 6,4 | 97,4 | 0 | 0,3 | 197 | 0,6 | 994,2 |
| 15 | Curicó | 02-05-2026 03:30 | 6,4 | 97,5 | 0 | 0,3 | 175 | 0,6 | 994,2 |
| 14 | Curicó | 02-05-2026 03:15 | 6,3 | 97,5 | 0 | 0 | 175 | 0,6 | 994,3 |
| 13 | Curicó | 02-05-2026 03:00 | 6,4 | 97,4 | 0 | 0 | 178 | 0,6 | 994,4 |
| 12 | Curicó | 02-05-2026 02:45 | 6,4 | 97,5 | 0 | 0 | 160 | 0,6 | 994,6 |
| 11 | Curicó | 02-05-2026 02:30 | 5,5 | 97,7 | 0 | 0 | 160 | 0,6 | 994,6 |
| 10 | Curicó | 02-05-2026 02:15 | 4,5 | 97,2 | 0 | 0 | 160 | 0,6 | 994,8 |
| 9 | Curicó | 02-05-2026 02:00 | 5,4 | 97,4 | 0 | 0 | 160 | 0,6 | 994,8 |
| 8 | Curicó | 02-05-2026 01:45 | 5,9 | 96,7 | 0 | 0 | 160 | 0,6 | 995,1 |
| 7 | Curicó | 02-05-2026 01:30 | 6,3 | 97 | 0 | 0 | 181 | 0,6 | 995 |
| 6 | Curicó | 02-05-2026 01:15 | 5,5 | 97 | 0 | 0 | 185 | 0,6 | 995,2 |
| 5 | Curicó | 02-05-2026 01:00 | 5,4 | 96,6 | 0 | 0 | 185 | 0,6 | 995,6 |
| 4 | Curicó | 02-05-2026 00:45 | 6,3 | 96,6 | 0 | 0 | 185 | 0,6 | 995,8 |
| 3 | Curicó | 02-05-2026 00:30 | 6,1 | 96,8 | 0 | 0 | 199 | 0,6 | 995,9 |
| 2 | Curicó | 02-05-2026 00:15 | 5,5 | 96,7 | 0 | 0 | 201 | 0,6 | 996 |
| 1 | Curicó | 02-05-2026 00:00 | 4,9 | 96,2 | 0 | 0 | 201 | 0,6 | 996,4 |